»·PEaware :: N113A KONT-KBFL

N113A :: KONT-KBFL

FLIGHT INFORMATION

Flight Status: Arrived
Operator: Privately registered:
United States
More flights under this callsign
Pilot: Andrew A. (11207)
Aircraft: Unknown
(G58)
More flights by this aircraft type
Origin: KONT Ontario Intl
United States
Destination: KBFL Meadows
United States
More flights between these airports :: More routes between these airports
Route: POM V264 ITSME V186 DARTS V459 LHS FASTO1
File this flight plan on PilotEdge
Remarks:
Altitude:
(Current/Filed)
10,000ft
Speed:
(Current/Filed)
146kts
Departed: 29-Sep-16 05:54 PM
Arrived: 29-Sep-16 06:49 PM
Distance/Time
Traveled:
110nm/0:54
Distance/Time
To Go:
Arrived

Flight Plot

Page will automatically refresh every two minutes.

Flight plan parsing failed; only flown route is shown


Map Options




Map Legend


Flown Route
Filed Route
Departure Airport
Arrival Airport
Navaid (VOR, NDB)
Fix

Horizontal Profiles

Position Reports

Time Latitude Longitude Heading Altitude Ground
Speed
29-Sep-16 17:31 34.061643 -117.605666 312 945ft 0kts
29-Sep-16 17:32 34.061643 -117.605666 312 945ft 0kts
29-Sep-16 17:33 34.061643 -117.605666 312 945ft 0kts
29-Sep-16 17:34 34.061643 -117.605666 312 945ft 0kts
29-Sep-16 17:35 34.061643 -117.605666 312 945ft 0kts
29-Sep-16 17:36 34.061643 -117.605666 312 945ft 0kts
29-Sep-16 17:37 34.061643 -117.605666 312 945ft 0kts
29-Sep-16 17:38 34.061643 -117.605666 312 945ft 0kts
29-Sep-16 17:39 34.061643 -117.605666 312 945ft 0kts
29-Sep-16 17:40 34.061643 -117.605666 312 945ft 0kts
29-Sep-16 17:41 34.061643 -117.605666 312 945ft 0kts
29-Sep-16 17:42 34.061643 -117.605666 312 945ft 0kts
29-Sep-16 17:43 34.060768 -117.605593 139 942ft 19kts
29-Sep-16 17:44 34.058007 -117.601717 92 928ft 12kts
29-Sep-16 17:45 34.058000 -117.597360 87 928ft 16kts
29-Sep-16 17:46 34.057998 -117.592130 87 928ft 14kts
29-Sep-16 17:47 34.058014 -117.587250 89 930ft 13kts
29-Sep-16 17:48 34.057949 -117.582579 113 931ft 10kts
29-Sep-16 17:49 34.057859 -117.582444 140 930ft 0kts
29-Sep-16 17:50 34.055911 -117.598622 269 1061ft 126kts
29-Sep-16 17:51 34.062806 -117.646509 295 1967ft 150kts
29-Sep-16 17:52 34.063428 -117.691721 259 3208ft 144kts
29-Sep-16 17:53 34.068775 -117.740310 285 4039ft 161kts
29-Sep-16 17:54 34.074276 -117.789725 269 5089ft 156kts
29-Sep-16 17:55 34.075526 -117.842164 273 5927ft 150kts
29-Sep-16 17:56 34.074148 -117.890600 267 6994ft 133kts
29-Sep-16 17:57 34.073344 -117.936206 270 8055ft 120kts
29-Sep-16 17:58 34.073483 -117.981626 271 8781ft 129kts
29-Sep-16 17:59 34.080011 -118.023332 291 9561ft 127kts
29-Sep-16 18:00 34.096972 -118.062904 294 9926ft 140kts
29-Sep-16 18:01 34.112241 -118.107304 287 10119ft 142kts
29-Sep-16 18:02 34.123055 -118.155414 284 10020ft 145kts
29-Sep-16 18:03 34.131041 -118.193821 289 9994ft 149kts
29-Sep-16 18:04 34.145751 -118.244372 287 9983ft 170kts
29-Sep-16 18:05 34.172874 -118.285058 339 9940ft 164kts
29-Sep-16 18:06 34.212438 -118.303472 329 10001ft 147kts
29-Sep-16 18:07 34.249477 -118.324522 335 9949ft 145kts
29-Sep-16 18:08 34.285271 -118.344554 334 9963ft 143kts
29-Sep-16 18:09 34.320984 -118.364279 340 10018ft 139kts
29-Sep-16 18:10 34.357222 -118.383407 333 9946ft 143kts
29-Sep-16 18:11 34.391170 -118.406017 334 10021ft 140kts
29-Sep-16 18:12 34.426322 -118.428498 332 9950ft 145kts
29-Sep-16 18:13 34.462898 -118.447348 333 9962ft 145kts
29-Sep-16 18:14 34.498604 -118.468502 331 9986ft 144kts
29-Sep-16 18:15 34.534618 -118.489723 332 10005ft 143kts
29-Sep-16 18:16 34.570673 -118.510660 334 9969ft 146kts
29-Sep-16 18:17 34.607004 -118.532135 329 9917ft 148kts
29-Sep-16 18:18 34.643701 -118.551848 339 9991ft 141kts
29-Sep-16 18:19 34.679098 -118.574244 331 9976ft 143kts
29-Sep-16 18:20 34.709782 -118.604687 317 9926ft 147kts
29-Sep-16 18:21 34.739919 -118.637153 324 9988ft 142kts
29-Sep-16 18:22 34.770048 -118.668428 314 9980ft 143kts
29-Sep-16 18:23 34.799989 -118.699943 319 10022ft 141kts
29-Sep-16 18:24 34.829378 -118.733104 312 10025ft 141kts
29-Sep-16 18:25 34.859412 -118.765054 317 10026ft 141kts
29-Sep-16 18:26 34.890196 -118.796700 320 9956ft 148kts
29-Sep-16 18:27 34.921455 -118.828105 319 10033ft 141kts
29-Sep-16 18:28 34.952248 -118.858818 331 9963ft 147kts
29-Sep-16 18:29 34.990711 -118.863212 6 8932ft 118kts
29-Sep-16 18:30 35.026441 -118.858921 2 9033ft 149kts
29-Sep-16 18:31 35.069876 -118.859386 1 9002ft 153kts
29-Sep-16 18:32 35.111873 -118.855852 2 8479ft 154kts
29-Sep-16 18:33 35.144965 -118.855732 1 7589ft 135kts
29-Sep-16 18:34 35.188621 -118.857005 354 5011ft 135kts
29-Sep-16 18:35 35.218486 -118.857957 359 4657ft 132kts
29-Sep-16 18:36 35.257964 -118.858019 1 4618ft 151kts
29-Sep-16 18:37 35.289358 -118.881838 318 4244ft 106kts
29-Sep-16 18:38 35.309927 -118.905848 315 3745ft 109kts
29-Sep-16 18:39 35.331835 -118.932764 313 3334ft 111kts
29-Sep-16 18:40 35.354882 -118.960855 312 2561ft 107kts
29-Sep-16 18:41 35.375322 -118.985200 314 2007ft 108kts
29-Sep-16 18:42 35.395735 -119.010219 315 1502ft 102kts
29-Sep-16 18:43 35.416788 -119.035193 309 862ft 93kts
29-Sep-16 18:44 35.435151 -119.057819 316 481ft 74kts
29-Sep-16 18:45 35.440072 -119.061610 131 493ft 17kts
29-Sep-16 18:46 35.437503 -119.057251 69 493ft 12kts

Navigation Log

Ident Type
Flight plan parsing failed, navigation log unavailable